Time;durP1;ratioP1;P1;durP2;ratioP2;P2;SDS_P1;SDS_P2;PMS_P1;PMS_P2;Temp;Humidity;BMP_temperature;BMP_pressure;BME280_temperature;BME280_humidity;BME280_pressure;Samples;Min_cycle;Max_cycle;Signal;HPM_P1;HPM_P2
2023/12/23 00:00:55;;;;;;;13.50;4.30;;;;;;;1.08;100.00;97216.72;87138;271;137257;-67
2023/12/23 00:02:57;;;;;;;8.00;4.40;;;;;;;1.08;100.00;97219.27;87254;278;22584;-70
2023/12/23 00:04:59;;;;;;;11.70;4.40;;;;;;;1.07;100.00;97214.70;87003;279;137025;-67
2023/12/23 00:29:53;;;;;;;7.70;3.40;;;;;;;1.95;100.00;97216.24;85281;296;604274;-68
2023/12/23 00:31:56;;;;;;;9.30;4.20;;;;;;;1.88;100.00;97217.05;86398;291;24854;-70
2023/12/23 00:34:00;;;;;;;6.10;2.80;;;;;;;1.82;100.00;97213.56;86152;280;135781;-68
2023/12/23 00:36:02;;;;;;;6.20;2.50;;;;;;;1.76;100.00;97211.16;86156;292;23759;-67
2023/12/23 00:38:04;;;;;;;8.10;3.30;;;;;;;1.72;100.00;97209.45;86243;291;22567;-68
2023/12/23 00:40:07;;;;;;;9.50;3.20;;;;;;;1.68;100.00;97214.39;86238;291;140803;-67
2023/12/23 00:42:09;;;;;;;10.30;3.80;;;;;;;1.65;100.00;97213.05;86594;287;22586;-68
2023/12/23 00:44:11;;;;;;;10.40;2.70;;;;;;;1.63;100.00;97211.02;85800;288;809895;-71
2023/12/23 00:46:13;;;;;;;8.00;3.90;;;;;;;1.59;100.00;97220.60;86583;280;25195;-69
2023/12/23 00:48:16;;;;;;;12.10;3.90;;;;;;;1.56;100.00;97219.60;86549;287;136844;-70
2023/12/23 00:50:18;;;;;;;6.30;2.60;;;;;;;1.49;100.00;97218.81;86510;278;25106;-69
2023/12/23 00:52:20;;;;;;;5.80;2.70;;;;;;;1.43;100.00;97216.70;86564;278;136236;-73
2023/12/23 00:54:23;;;;;;;8.80;2.80;;;;;;;1.45;100.00;97218.70;86567;283;22563;-75
2023/12/23 00:56:25;;;;;;;7.10;2.60;;;;;;;1.43;100.00;97215.84;86621;281;136497;-74
2023/12/23 00:58:26;;;;;;;6.30;2.80;;;;;;;1.41;100.00;97213.05;86736;285;26142;-74
2023/12/23 01:00:28;;;;;;;6.30;2.20;;;;;;;1.38;100.00;97211.33;86784;275;136351;-73
2023/12/23 01:02:30;;;;;;;7.30;2.60;;;;;;;1.42;100.00;97214.15;86736;281;22578;-74
2023/12/23 01:04:32;;;;;;;7.50;3.40;;;;;;;1.47;100.00;97217.92;86613;279;137747;-75
2023/12/23 01:06:36;;;;;;;7.50;2.20;;;;;;;1.52;100.00;97220.98;86870;281;22839;-73
2023/12/23 01:08:38;;;;;;;3.80;1.80;;;;;;;1.57;100.00;97222.34;86747;284;136182;-73
2023/12/23 01:10:39;;;;;;;8.40;2.80;;;;;;;1.62;100.00;97221.63;86700;275;22570;-75
2023/12/23 01:12:41;;;;;;;5.30;2.80;;;;;;;1.67;100.00;97212.09;86634;276;136181;-75
2023/12/23 01:14:43;;;;;;;9.80;3.20;;;;;;;1.67;100.00;97221.02;86687;283;22591;-74
2023/12/23 01:16:45;;;;;;;5.20;3.10;;;;;;;1.64;100.00;97221.52;86609;283;135491;-76
2023/12/23 01:18:47;;;;;;;8.10;2.40;;;;;;;1.65;100.00;97214.92;86890;276;22587;-75
2023/12/23 01:20:49;;;;;;;5.00;2.40;;;;;;;1.67;100.00;97216.13;86795;284;135556;-76
2023/12/23 01:22:51;;;;;;;5.90;2.20;;;;;;;1.68;100.00;97212.02;86989;275;22657;-76
2023/12/23 01:24:54;;;;;;;5.60;2.90;;;;;;;1.70;100.00;97212.68;86834;276;137766;-75
2023/12/23 01:26:57;;;;;;;8.40;2.20;;;;;;;1.73;100.00;97208.71;87017;276;22588;-75
2023/12/23 01:29:00;;;;;;;5.80;2.00;;;;;;;1.75;100.00;97212.86;86986;272;136653;-75
2023/12/23 01:31:02;;;;;;;5.30;2.70;;;;;;;1.76;100.00;97213.55;86999;284;22642;-72
2023/12/23 01:33:07;;;;;;;3.30;2.10;;;;;;;1.79;100.00;97210.30;86573;286;136665;-75
2023/12/23 01:35:11;;;;;;;7.90;2.30;;;;;;;1.79;100.00;97213.01;87059;276;22562;-74
2023/12/23 01:37:13;;;;;;;3.90;1.90;;;;;;;1.80;100.00;97210.30;86763;280;137013;-74
2023/12/23 01:39:15;;;;;;;5.40;2.40;;;;;;;1.79;100.00;97214.11;87081;283;22565;-74
2023/12/23 01:41:16;;;;;;;2.90;2.30;;;;;;;1.80;100.00;97212.64;86766;284;136174;-78
2023/12/23 01:43:18;;;;;;;7.10;2.80;;;;;;;1.79;100.00;97216.20;86902;276;24697;-73
2023/12/23 01:45:20;;;;;;;6.00;3.00;;;;;;;1.79;100.00;97217.48;86928;276;136214;-74
2023/12/23 01:47:23;;;;;;;8.90;3.40;;;;;;;1.78;100.00;97212.97;86959;276;22574;-73
2023/12/23 01:49:26;;;;;;;5.60;3.10;;;;;;;1.79;100.00;97211.89;86892;272;136975;-77
2023/12/23 01:51:31;;;;;;;3.20;2.60;;;;;;;1.80;100.00;97212.88;86867;271;25114;-75
2023/12/23 01:53:33;;;;;;;5.00;2.70;;;;;;;1.81;100.00;97207.54;86812;272;136289;-75
2023/12/23 01:55:35;;;;;;;5.60;2.50;;;;;;;1.82;100.00;97208.08;87074;283;22762;-74
2023/12/23 01:57:37;;;;;;;5.40;2.80;;;;;;;1.84;100.00;97205.72;86465;285;136085;-75
2023/12/23 01:59:39;;;;;;;5.80;3.00;;;;;;;1.82;100.00;97199.30;86881;276;22636;-76
2023/12/23 02:01:43;;;;;;;5.70;2.40;;;;;;;1.83;100.00;97197.42;86756;275;138052;-75
2023/12/23 02:03:45;;;;;;;4.30;2.50;;;;;;;1.82;100.00;97194.29;87080;272;25209;-74
2023/12/23 02:05:47;;;;;;;9.30;2.80;;;;;;;1.81;100.00;97188.27;86997;284;136282;-76
2023/12/23 02:07:49;;;;;;;5.60;2.90;;;;;;;1.76;100.00;97195.73;86715;277;25249;-75
2023/12/23 02:09:51;;;;;;;6.90;3.00;;;;;;;1.71;100.00;97196.61;86969;279;135618;-77
2023/12/23 02:11:59;;;;;;;4.80;2.40;;;;;;;1.67;100.00;97199.36;87141;273;25114;-75
2023/12/23 02:14:10;;;;;;;4.30;2.50;;;;;;;1.66;100.00;97198.27;86797;282;135176;-77
2023/12/23 02:16:15;;;;;;;5.40;2.90;;;;;;;1.67;100.00;97189.14;86903;281;136612;-77
2023/12/23 02:18:17;;;;;;;5.60;2.90;;;;;;;1.68;100.00;97186.27;87045;278;24029;-77
2023/12/23 02:20:21;;;;;;;6.20;2.70;;;;;;;1.70;100.00;97182.27;86963;282;136229;-77
2023/12/23 02:22:23;;;;;;;6.00;2.50;;;;;;;1.69;100.00;97175.30;87069;274;25083;-79
2023/12/23 02:24:26;;;;;;;8.10;2.30;;;;;;;1.69;100.00;97172.00;87083;275;136341;-78
2023/12/23 02:26:31;;;;;;;2.70;2.00;;;;;;;1.68;100.00;97171.45;87603;282;23702;-75
2023/12/23 02:28:34;;;;;;;5.80;2.70;;;;;;;1.68;100.00;97166.89;87337;270;136498;-77
2023/12/23 02:30:40;;;;;;;4.20;2.00;;;;;;;1.68;100.00;97164.21;87033;279;22719;-73
2023/12/23 02:32:43;;;;;;;6.20;2.50;;;;;;;1.69;100.00;97165.14;86950;267;136275;-76
2023/12/23 02:34:46;;;;;;;7.80;2.40;;;;;;;1.70;100.00;97164.89;86857;275;25342;-74
2023/12/23 02:36:48;;;;;;;3.50;2.10;;;;;;;1.73;100.00;97166.81;86981;282;136144;-73
2023/12/23 02:38:52;;;;;;;2.50;1.90;;;;;;;1.74;100.00;97169.60;86978;270;22583;-75
2023/12/23 02:40:54;;;;;;;5.20;2.50;;;;;;;1.68;100.00;97170.92;86913;270;136284;-76
2023/12/23 02:42:57;;;;;;;4.90;2.20;;;;;;;1.64;100.00;97167.83;87201;281;22894;-76
2023/12/23 02:44:59;;;;;;;3.10;2.20;;;;;;;1.62;100.00;97169.45;87193;282;135954;-76
2023/12/23 02:47:01;;;;;;;5.30;2.80;;;;;;;1.62;100.00;97171.02;86854;275;24152;-72
2023/12/23 02:49:03;;;;;;;3.70;2.20;;;;;;;1.61;100.00;97168.57;87089;274;137509;-76
2023/12/23 02:51:09;;;;;;;5.00;2.60;;;;;;;1.58;100.00;97165.00;87112;278;24142;-77
2023/12/23 02:53:11;;;;;;;3.20;1.90;;;;;;;1.59;100.00;97163.73;86824;278;137880;-74
2023/12/23 02:55:15;;;;;;;6.20;2.30;;;;;;;1.59;100.00;97160.42;87015;270;22565;-72
2023/12/23 02:57:17;;;;;;;4.50;1.90;;;;;;;1.59;100.00;97158.56;87119;274;136313;-76
2023/12/23 02:59:21;;;;;;;3.60;1.60;;;;;;;1.60;100.00;97160.30;87023;282;24004;-77
2023/12/23 03:01:23;;;;;;;3.40;1.30;;;;;;;1.62;100.00;97164.44;87052;282;136050;-79
2023/12/23 03:03:25;;;;;;;2.10;1.90;;;;;;;1.63;100.00;97164.48;87074;274;25083;-79
2023/12/23 03:05:27;;;;;;;7.30;3.40;;;;;;;1.64;100.00;97165.80;87063;274;137626;-70
2023/12/23 03:07:29;;;;;;;4.50;2.10;;;;;;;1.65;100.00;97162.16;87169;273;25181;-76
2023/12/23 03:09:31;;;;;;;3.30;2.00;;;;;;;1.65;100.00;97162.73;86970;270;136486;-77
2023/12/23 03:11:33;;;;;;;5.60;1.60;;;;;;;1.63;100.00;97166.91;87308;274;26323;-80
2023/12/23 03:13:36;;;;;;;3.00;1.70;;;;;;;1.61;100.00;97168.52;86936;275;136375;-70
2023/12/23 03:15:38;;;;;;;3.70;2.30;;;;;;;1.60;100.00;97174.15;86872;276;22529;-77
2023/12/23 03:17:40;;;;;;;4.50;2.80;;;;;;;1.57;100.00;97171.10;86927;279;136343;-76
2023/12/23 03:19:42;;;;;;;2.80;2.40;;;;;;;1.54;100.00;97175.14;86973;283;24129;-77
2023/12/23 03:21:46;;;;;;;5.10;1.90;;;;;;;1.49;100.00;97169.15;86936;278;136909;-76
2023/12/23 03:23:48;;;;;;;4.80;2.20;;;;;;;1.44;100.00;97172.75;87126;271;22719;-76
2023/12/23 03:25:50;;;;;;;3.40;1.60;;;;;;;1.41;100.00;97174.77;86953;274;136837;-78
2023/12/23 03:27:51;;;;;;;3.20;1.80;;;;;;;1.40;100.00;97175.03;86971;274;24945;-78
2023/12/23 03:29:53;;;;;;;3.50;1.80;;;;;;;1.42;100.00;97178.16;86986;278;137783;-78
2023/12/23 03:31:55;;;;;;;1.80;1.60;;;;;;;1.44;100.00;97179.45;87052;282;24049;-78
2023/12/23 03:34:22;;;;;;;2.40;1.50;;;;;;;1.47;100.00;97173.30;86800;275;136044;-77
2023/12/23 03:36:25;;;;;;;2.30;1.60;;;;;;;1.49;100.00;97173.30;86757;275;137144;-77
2023/12/23 03:38:27;;;;;;;4.20;1.40;;;;;;;1.50;100.00;97172.29;87025;271;23892;-78
2023/12/23 03:40:29;;;;;;;5.50;2.60;;;;;;;1.52;100.00;97174.65;86824;275;136047;-78
2023/12/23 03:42:31;;;;;;;3.50;1.60;;;;;;;1.44;100.00;97163.59;86784;276;25225;-75
2023/12/23 03:44:32;;;;;;;2.40;2.00;;;;;;;1.55;100.00;97175.46;86791;275;136617;-79
2023/12/23 03:46:34;;;;;;;1.80;1.60;;;;;;;1.57;100.00;97180.55;87110;274;24017;-77
2023/12/23 03:48:36;;;;;;;4.20;2.20;;;;;;;1.56;100.00;97180.95;86818;276;137086;-74
2023/12/23 03:50:38;;;;;;;2.80;1.90;;;;;;;1.57;100.00;97187.29;86749;284;22627;-78
2023/12/23 03:52:40;;;;;;;4.40;1.60;;;;;;;1.61;100.00;97187.52;86592;281;136059;-79
2023/12/23 03:54:41;;;;;;;4.70;1.90;;;;;;;1.65;100.00;97183.58;86904;275;22573;-79
2023/12/23 03:56:43;;;;;;;3.20;1.80;;;;;;;1.67;100.00;97184.41;86785;279;136882;-78
2023/12/23 03:58:45;;;;;;;1.80;1.60;;;;;;;1.67;100.00;97184.81;86828;275;22625;-75
2023/12/23 04:00:47;;;;;;;5.10;2.00;;;;;;;1.68;100.00;97187.40;86762;275;136865;-78
2023/12/23 04:02:49;;;;;;;2.80;2.50;;;;;;;1.69;100.00;97190.27;86992;279;26422;-77
2023/12/23 04:04:52;;;;;;;4.80;2.20;;;;;;;1.69;100.00;97183.75;86835;275;137209;-76
2023/12/23 04:06:54;;;;;;;3.10;1.60;;;;;;;1.68;100.00;97187.52;86914;275;25122;-74
2023/12/23 04:08:56;;;;;;;3.90;2.30;;;;;;;1.69;100.00;97189.90;86878;275;136755;-75
2023/12/23 04:10:59;;;;;;;4.80;2.30;;;;;;;1.71;100.00;97192.44;86889;276;23663;-77
2023/12/23 04:13:03;;;;;;;3.30;2.40;;;;;;;1.69;100.00;97189.66;86850;280;136542;-78
2023/12/23 04:15:06;;;;;;;2.80;1.70;;;;;;;1.75;100.00;97202.39;86896;276;25357;-74
2023/12/23 04:17:08;;;;;;;7.30;2.20;;;;;;;1.80;100.00;97200.57;87020;274;138247;-76
2023/12/23 04:19:10;;;;;;;5.20;2.00;;;;;;;1.80;100.00;97198.90;86865;275;23209;-78
2023/12/23 04:21:12;;;;;;;2.70;1.80;;;;;;;1.74;100.00;97193.77;87279;275;136878;-70
2023/12/23 04:23:16;;;;;;;6.70;2.70;;;;;;;1.83;100.00;97206.08;87401;275;24307;-76
2023/12/23 04:25:19;;;;;;;6.20;2.10;;;;;;;1.82;100.00;97207.17;88041;278;135950;-77
2023/12/23 04:27:23;;;;;;;2.90;2.60;;;;;;;1.82;100.00;97206.85;87589;271;22522;-77
2023/12/23 04:29:26;;;;;;;5.10;2.80;;;;;;;1.80;100.00;97204.23;86990;274;137854;-78
2023/12/23 04:31:28;;;;;;;4.70;2.10;;;;;;;1.79;100.00;97208.05;87179;278;23745;-76
2023/12/23 04:33:34;;;;;;;4.90;2.40;;;;;;;1.82;100.00;97208.59;86989;282;136758;-79
2023/12/23 04:35:37;;;;;;;4.80;1.80;;;;;;;1.76;100.00;97196.54;87331;278;23796;-77
2023/12/23 04:37:41;;;;;;;5.50;2.20;;;;;;;1.85;100.00;97213.83;86857;283;136073;-76
2023/12/23 04:39:43;;;;;;;;;;;;;;;1.87;100.00;97210.43;87010;283;22559;-78
2023/12/23 04:41:49;;;;;;;4.20;1.90;;;;;;;1.88;100.00;97213.25;86924;274;124474;-78
2023/12/23 04:43:51;;;;;;;3.60;1.60;;;;;;;1.87;100.00;97214.99;87133;273;22579;-76
2023/12/23 04:45:53;;;;;;;7.00;2.00;;;;;;;1.85;100.00;97216.67;87003;274;135993;-76
2023/12/23 04:47:55;;;;;;;3.80;2.40;;;;;;;1.82;100.00;97217.02;86929;275;22790;-76
2023/12/23 04:49:57;;;;;;;3.50;2.10;;;;;;;1.79;100.00;97216.02;86724;273;136182;-78
2023/12/23 04:51:59;;;;;;;6.20;2.30;;;;;;;1.80;100.00;97217.77;87098;275;25086;-78
2023/12/23 04:54:00;;;;;;;3.20;1.90;;;;;;;1.80;100.00;97219.23;86803;283;136328;-77
2023/12/23 04:56:04;;;;;;;6.50;1.90;;;;;;;1.79;100.00;97218.30;86992;275;137149;-75
2023/12/23 04:58:08;;;;;;;7.40;3.10;;;;;;;1.80;100.00;97219.80;86966;283;22610;-80
2023/12/23 05:00:11;;;;;;;4.00;2.10;;;;;;;1.80;100.00;97224.59;86896;272;136816;-82
2023/12/23 05:02:13;;;;;;;3.40;2.30;;;;;;;1.80;100.00;97224.27;86935;271;22846;-77
2023/12/23 05:04:15;;;;;;;5.70;2.70;;;;;;;1.77;100.00;97225.01;86936;270;137099;-75
2023/12/23 05:06:19;;;;;;;6.00;2.50;;;;;;;1.75;100.00;97231.52;87753;266;22788;-72
2023/12/23 05:08:21;;;;;;;4.80;2.20;;;;;;;1.74;100.00;97230.39;87585;281;136755;-75
2023/12/23 05:10:24;;;;;;;5.20;2.20;;;;;;;1.74;100.00;97239.33;88024;270;24843;-80
2023/12/23 05:12:28;;;;;;;2.60;2.20;;;;;;;1.74;100.00;97242.45;87519;270;138112;-79
2023/12/23 05:14:29;;;;;;;5.20;2.10;;;;;;;1.75;100.00;97245.80;87029;283;22583;-78
2023/12/23 05:16:32;;;;;;;6.50;2.30;;;;;;;1.77;100.00;97247.52;86870;273;136568;-77
2023/12/23 05:18:34;;;;;;;4.10;2.20;;;;;;;1.78;100.00;97247.96;87085;270;22582;-79
2023/12/23 05:20:37;;;;;;;3.40;2.20;;;;;;;1.81;100.00;97251.34;86951;282;136789;-78
2023/12/23 05:22:38;;;;;;;9.60;2.80;;;;;;;1.82;100.00;97255.33;86920;271;22557;-69
2023/12/23 05:24:42;;;;;;;2.70;2.30;;;;;;;1.82;100.00;97252.59;86740;283;138991;-80
2023/12/23 05:26:44;;;;;;;5.80;2.40;;;;;;;1.82;100.00;97252.54;87274;278;22582;-79
2023/12/23 05:28:47;;;;;;;2.20;2.00;;;;;;;1.81;100.00;97257.64;86816;275;136422;-79
2023/12/23 05:30:49;;;;;;;4.40;2.30;;;;;;;1.79;100.00;97254.30;87003;278;22651;-82
2023/12/23 05:32:51;;;;;;;5.20;2.90;;;;;;;1.78;100.00;97253.81;86794;273;136608;-80
2023/12/23 05:34:54;;;;;;;2.80;2.60;;;;;;;1.75;100.00;97256.73;87122;274;22633;-77
2023/12/23 05:36:55;;;;;;;3.80;2.40;;;;;;;1.76;100.00;97259.48;86862;273;136918;-80
2023/12/23 05:38:57;;;;;;;3.10;2.70;;;;;;;1.75;100.00;97258.67;87112;281;25301;-79
2023/12/23 05:41:00;;;;;;;5.30;2.90;;;;;;;1.78;100.00;97266.78;86820;277;136569;-79
2023/12/23 05:43:02;;;;;;;2.90;2.20;;;;;;;1.80;100.00;97269.16;87069;274;22578;-75
2023/12/23 05:45:05;;;;;;;3.10;2.80;;;;;;;1.82;100.00;97274.81;87005;270;136816;-70
2023/12/23 05:47:06;;;;;;;3.10;2.30;;;;;;;1.83;100.00;97278.73;87347;274;22630;-79
2023/12/23 05:49:09;;;;;;;5.20;2.60;;;;;;;1.85;100.00;97283.70;87236;273;136529;-81
2023/12/23 05:51:11;;;;;;;6.10;2.30;;;;;;;1.87;100.00;97284.81;87995;290;22687;-75
2023/12/23 05:53:13;;;;;;;5.60;3.10;;;;;;;1.90;100.00;97283.56;88034;271;136422;-73
2023/12/23 05:55:15;;;;;;;6.20;2.40;;;;;;;1.90;100.00;97283.56;87152;278;25121;-80
2023/12/23 05:57:17;;;;;;;5.80;1.90;;;;;;;1.91;100.00;97278.67;86912;274;137062;-81
2023/12/23 05:59:19;;;;;;;7.80;2.80;;;;;;;1.92;100.00;97283.91;86950;282;22717;-80
2023/12/23 06:01:21;;;;;;;3.60;2.30;;;;;;;1.92;100.00;97285.69;86867;271;137958;-78
2023/12/23 06:03:23;;;;;;;5.30;2.50;;;;;;;1.92;100.00;97287.14;86972;281;25224;-79
2023/12/23 06:05:25;;;;;;;4.20;2.90;;;;;;;1.91;100.00;97291.64;87210;277;137805;-81
2023/12/23 06:07:27;;;;;;;2.70;1.80;;;;;;;1.92;100.00;97290.77;86895;273;23145;-78
2023/12/23 06:09:29;;;;;;;4.10;2.70;;;;;;;1.90;100.00;97293.62;86750;275;136705;-79
2023/12/23 06:11:30;;;;;;;8.00;3.40;;;;;;;1.90;100.00;97298.96;86835;274;25322;-76
2023/12/23 06:13:33;;;;;;;7.10;2.50;;;;;;;1.90;100.00;97307.48;86810;282;138057;-70
2023/12/23 06:15:36;;;;;;;8.10;3.70;;;;;;;1.91;100.00;97308.45;86946;279;22583;-71
2023/12/23 06:17:38;;;;;;;8.10;2.80;;;;;;;1.91;100.00;97309.66;86790;281;136808;-72
2023/12/23 06:19:40;;;;;;;4.60;2.80;;;;;;;1.92;100.00;97319.16;86995;270;25131;-69
2023/12/23 06:21:45;;;;;;;5.40;3.40;;;;;;;1.95;100.00;97319.02;86872;282;136960;-71
2023/12/23 06:23:47;;;;;;;4.70;2.60;;;;;;;2.01;100.00;97319.85;87004;270;22578;-71
2023/12/23 06:25:49;;;;;;;4.80;2.90;;;;;;;2.04;100.00;97319.44;86764;278;136571;-72
2023/12/23 06:27:51;;;;;;;6.40;3.30;;;;;;;2.05;100.00;97320.31;87005;274;22570;-72
2023/12/23 06:29:52;;;;;;;7.50;2.50;;;;;;;2.06;100.00;97324.64;86693;275;136044;-73
2023/12/23 06:31:54;;;;;;;8.80;2.80;;;;;;;2.00;100.00;97316.86;86987;270;25132;-73
2023/12/23 06:33:56;;;;;;;7.70;3.20;;;;;;;2.06;100.00;97325.70;86866;274;136531;-73
2023/12/23 06:35:58;;;;;;;4.70;3.30;;;;;;;2.06;100.00;97327.02;86805;282;24948;-74
2023/12/23 06:38:00;;;;;;;6.80;3.50;;;;;;;2.09;100.00;97327.86;86853;270;137951;-71
2023/12/23 06:40:03;;;;;;;5.30;4.00;;;;;;;2.10;100.00;97326.52;87075;272;22572;-73
2023/12/23 06:42:05;;;;;;;7.50;4.10;;;;;;;2.13;100.00;97328.79;87022;272;22574;-71
2023/12/23 06:44:07;;;;;;;9.40;4.80;;;;;;;2.14;100.00;97330.72;86887;264;136211;-72
2023/12/23 06:46:12;;;;;;;10.20;4.90;;;;;;;2.14;100.00;97328.77;86932;272;22647;-71
2023/12/23 06:48:14;;;;;;;11.40;4.80;;;;;;;2.13;100.00;97334.96;86827;280;138013;-71
2023/12/23 06:50:16;;;;;;;8.50;5.10;;;;;;;2.15;100.00;97336.85;86904;277;22575;-71
2023/12/23 06:52:18;;;;;;;10.10;4.40;;;;;;;2.15;100.00;97334.43;86858;270;138197;-71
2023/12/23 06:54:20;;;;;;;6.90;3.30;;;;;;;2.16;100.00;97341.54;86792;274;23312;-71
2023/12/23 06:56:22;;;;;;;6.50;3.50;;;;;;;2.16;100.00;97341.66;86829;272;137040;-71
2023/12/23 06:58:27;;;;;;;6.00;3.80;;;;;;;2.13;100.00;97343.05;87216;280;24349;-70
2023/12/23 07:00:29;;;;;;;9.60;4.30;;;;;;;2.14;100.00;97344.30;86808;280;136680;-71
2023/12/23 07:02:31;;;;;;;11.90;4.80;;;;;;;2.16;100.00;97347.29;86920;272;23290;-72
2023/12/23 07:04:33;;;;;;;6.70;4.10;;;;;;;2.15;100.00;97344.98;86810;276;136927;-71
2023/12/23 07:06:35;;;;;;;6.40;3.80;;;;;;;2.15;100.00;97344.54;87030;280;23115;-69
2023/12/23 07:08:38;;;;;;;10.00;3.80;;;;;;;2.15;100.00;97350.52;86844;272;136686;-71
2023/12/23 07:10:39;;;;;;;9.40;5.20;;;;;;;2.12;100.00;97348.92;87112;277;22768;-72
2023/12/23 07:12:42;;;;;;;11.60;4.10;;;;;;;2.20;100.00;97354.34;86754;270;136898;-76
2023/12/23 07:14:45;;;;;;;6.80;3.20;;;;;;;2.21;100.00;97357.17;87262;270;25130;-74
2023/12/23 07:16:47;;;;;;;8.10;4.00;;;;;;;2.23;100.00;97356.31;86869;277;136829;-76
2023/12/23 07:18:49;;;;;;;9.00;4.20;;;;;;;2.25;100.00;97356.17;86918;272;22565;-74
2023/12/23 07:20:51;;;;;;;10.50;4.90;;;;;;;2.28;100.00;97362.89;86839;272;137539;-73
2023/12/23 07:22:53;;;;;;;8.50;4.80;;;;;;;2.29;100.00;97365.27;87315;272;22687;-75
2023/12/23 07:24:55;;;;;;;9.50;3.90;;;;;;;2.30;100.00;97364.66;86810;273;136707;-76
2023/12/23 07:26:57;;;;;;;10.40;4.70;;;;;;;2.29;100.00;97358.92;86937;282;22590;-71
2023/12/23 07:28:59;;;;;;;8.30;4.40;;;;;;;2.29;100.00;97359.21;86896;273;135947;-78
2023/12/23 07:31:01;;;;;;;10.30;4.80;;;;;;;2.29;100.00;97362.73;86974;272;25117;-78
2023/12/23 07:33:03;;;;;;;12.30;5.60;;;;;;;2.27;100.00;97359.36;86868;276;136507;-74
2023/12/23 07:35:06;;;;;;;6.20;4.20;;;;;;;2.29;100.00;97364.26;86746;274;23746;-78
2023/12/23 07:37:09;;;;;;;12.00;4.50;;;;;;;2.31;100.00;97363.09;86938;282;136340;-73
2023/12/23 07:39:11;;;;;;;6.90;4.30;;;;;;;2.31;100.00;97361.46;87353;280;25338;-73
2023/12/23 07:41:14;;;;;;;11.80;5.00;;;;;;;2.29;100.00;97362.11;86770;269;137542;-77
2023/12/23 07:43:15;;;;;;;14.20;5.40;;;;;;;2.31;100.00;97368.22;88460;269;22529;-76
2023/12/23 07:45:17;;;;;;;9.20;5.20;;;;;;;2.35;100.00;97367.80;86777;278;137413;-73
2023/12/23 07:47:19;;;;;;;12.70;5.30;;;;;;;2.39;100.00;97370.29;87056;270;22843;-76
2023/12/23 07:49:21;;;;;;;10.20;6.20;;;;;;;2.41;100.00;97372.42;86893;272;136869;-75
2023/12/23 07:51:23;;;;;;;11.70;4.70;;;;;;;2.42;100.00;97373.23;87360;266;23848;-78
2023/12/23 07:53:25;;;;;;;14.60;6.00;;;;;;;2.43;100.00;97372.40;86849;268;137334;-72
2023/12/23 07:55:27;;;;;;;12.10;6.80;;;;;;;2.44;100.00;97375.05;87640;274;25193;-77
2023/12/23 07:57:29;;;;;;;13.30;5.60;;;;;;;2.48;100.00;97373.00;87051;272;137546;-75
2023/12/23 07:59:31;;;;;;;10.40;5.30;;;;;;;2.45;100.00;97375.08;87152;271;24844;-77
2023/12/23 08:01:33;;;;;;;12.60;6.60;;;;;;;2.46;100.00;97370.41;86783;273;136373;-76
2023/12/23 08:03:36;;;;;;;10.90;5.50;;;;;;;2.52;100.00;97373.14;87005;278;25151;-76
2023/12/23 08:05:38;;;;;;;11.00;7.00;;;;;;;2.60;100.00;97378.45;87091;271;136922;-74
2023/12/23 08:07:42;;;;;;;17.70;7.80;;;;;;;2.59;100.00;97371.38;87453;275;22562;-78
2023/12/23 08:09:44;;;;;;;12.90;7.20;;;;;;;2.71;100.00;97388.75;87711;271;137185;-75
2023/12/23 08:11:45;;;;;;;14.30;7.90;;;;;;;2.70;100.00;97374.44;86937;272;22540;-73
2023/12/23 08:13:47;;;;;;;15.30;7.50;;;;;;;2.82;100.00;97390.15;87127;270;136880;-75
2023/12/23 08:15:49;;;;;;;12.90;6.50;;;;;;;2.84;100.00;97394.02;87048;280;22542;-74
2023/12/23 08:17:53;;;;;;;14.20;6.30;;;;;;;2.87;100.00;97397.36;87550;275;137438;-76
2023/12/23 08:19:55;;;;;;;15.60;8.00;;;;;;;2.87;100.00;97393.11;87370;278;23720;-75
2023/12/23 08:21:57;;;;;;;18.00;8.30;;;;;;;2.82;100.00;97398.04;87001;270;137539;-74
2023/12/23 08:24:03;;;;;;;12.00;7.10;;;;;;;2.68;100.00;97389.09;87125;266;23997;-76
2023/12/23 08:26:07;;;;;;;7.80;4.90;;;;;;;2.74;100.00;97395.29;86993;270;24030;-71
2023/12/23 08:28:09;;;;;;;11.00;4.80;;;;;;;2.75;100.00;97404.80;86915;271;136785;-75
2023/12/23 08:30:12;;;;;;;7.40;4.00;;;;;;;2.76;100.00;97398.45;87037;275;24075;-76
2023/12/23 08:32:14;;;;;;;13.00;5.30;;;;;;;2.85;100.00;97402.77;87964;271;138035;-75
2023/12/23 08:34:18;;;;;;;13.10;4.30;;;;;;;2.94;100.00;97405.58;87278;270;24036;-72
2023/12/23 08:36:22;;;;;;;8.40;3.80;;;;;;;2.99;100.00;97409.08;87054;274;136924;-76
2023/12/23 08:38:24;;;;;;;10.40;5.10;;;;;;;2.94;100.00;97391.87;87118;267;24002;-76
2023/12/23 08:40:26;;;;;;;14.70;5.40;;;;;;;3.00;100.00;97399.13;86917;271;136127;-76
2023/12/23 08:42:28;;;;;;;9.00;4.40;;;;;;;3.09;100.00;97406.67;87298;270;24710;-80
2023/12/23 08:44:30;;;;;;;10.50;6.00;;;;;;;3.12;100.00;97411.06;87067;274;148112;-79
2023/12/23 08:46:32;;;;;;;12.00;5.60;;;;;;;3.14;100.00;97405.67;87133;270;22572;-75
2023/12/23 08:48:37;;;;;;;12.20;6.00;;;;;;;3.12;100.00;97403.93;87068;266;137665;-77
2023/12/23 08:50:39;;;;;;;9.80;5.00;;;;;;;3.11;100.00;97407.77;87630;268;25156;-80
2023/12/23 08:52:41;;;;;;;12.10;5.80;;;;;;;3.11;100.00;97412.40;86997;277;140400;-78
2023/12/23 08:54:43;;;;;;;10.00;6.00;;;;;;;3.15;100.00;97410.71;87051;273;22576;-75
2023/12/23 08:56:45;;;;;;;12.30;6.60;;;;;;;3.10;100.00;97396.70;87014;269;138150;-78
2023/12/23 08:58:46;;;;;;;11.70;7.90;;;;;;;3.19;100.00;97410.30;87066;269;24234;-82
2023/12/23 09:00:48;;;;;;;17.40;7.70;;;;;;;3.21;100.00;97409.88;86919;270;136880;-79
2023/12/23 09:02:50;;;;;;;16.00;8.00;;;;;;;3.24;100.00;97415.48;87126;266;24150;-76
2023/12/23 09:04:53;;;;;;;11.20;5.70;;;;;;;3.25;100.00;97418.55;86999;271;137226;-75
2023/12/23 09:06:56;;;;;;;10.20;5.20;;;;;;;3.24;100.00;97418.02;87153;270;22574;-78
2023/12/23 09:08:58;;;;;;;12.20;5.60;;;;;;;3.21;100.00;97418.55;89818;267;136231;-76
2023/12/23 09:11:04;;;;;;;7.90;4.90;;;;;;;3.21;100.00;97412.91;90081;269;22970;-77
2023/12/23 09:13:06;;;;;;;8.30;4.40;;;;;;;3.23;100.00;97408.88;89979;269;136776;-73
2023/12/23 09:15:08;;;;;;;7.50;4.20;;;;;;;3.25;100.00;97409.00;88036;273;26011;-80
2023/12/23 09:17:10;;;;;;;10.50;4.60;;;;;;;3.25;100.00;97405.99;87005;262;137114;-77
2023/12/23 09:19:12;;;;;;;8.10;4.20;;;;;;;3.26;100.00;97406.77;87067;269;22973;-80
2023/12/23 09:21:14;;;;;;;8.30;4.60;;;;;;;3.23;100.00;97405.05;86906;273;136730;-77
2023/12/23 09:23:15;;;;;;;7.50;4.20;;;;;;;3.26;100.00;97406.00;87245;266;25136;-74
2023/12/23 09:25:18;;;;;;;7.10;4.00;;;;;;;3.27;100.00;97404.33;87051;274;136175;-78
2023/12/23 09:27:20;;;;;;;11.80;5.30;;;;;;;3.25;100.00;97402.81;87315;269;22648;-77
2023/12/23 09:29:22;;;;;;;8.60;4.30;;;;;;;3.24;100.00;97403.70;86959;270;137135;-79
2023/12/23 09:31:24;;;;;;;7.20;4.50;;;;;;;3.23;100.00;97407.92;87570;274;25086;-77
2023/12/23 09:33:26;;;;;;;10.20;6.10;;;;;;;3.23;100.00;97410.03;87057;267;136526;-76
2023/12/23 09:35:29;;;;;;;9.10;6.10;;;;;;;3.15;100.00;97401.37;87110;267;24058;-76
2023/12/23 09:37:31;;;;;;;11.80;5.70;;;;;;;3.21;100.00;97410.98;87359;269;136335;-79
2023/12/23 09:39:33;;;;;;;11.40;5.70;;;;;;;3.20;100.00;97416.69;87260;270;26188;-79
2023/12/23 09:41:35;;;;;;;7.70;4.10;;;;;;;3.10;100.00;97402.83;87011;271;136353;-78
2023/12/23 09:43:37;;;;;;;12.50;5.50;;;;;;;3.16;100.00;97418.02;87307;267;25105;-73
2023/12/23 09:45:41;;;;;;;8.10;4.10;;;;;;;3.12;100.00;97416.74;87067;269;136909;-76
2023/12/23 09:47:43;;;;;;;7.40;5.20;;;;;;;3.15;100.00;97413.41;87104;269;24817;-79
2023/12/23 09:49:46;;;;;;;11.40;5.50;;;;;;;3.17;100.00;97410.10;87175;269;137610;-78
2023/12/23 09:51:50;;;;;;;14.30;5.70;;;;;;;3.17;100.00;97409.75;87078;269;24039;-77
2023/12/23 09:53:58;;;;;;;7.80;4.80;;;;;;;3.12;100.00;97415.15;87067;271;136135;-76
2023/12/23 09:56:01;;;;;;;7.00;4.90;;;;;;;2.96;100.00;97401.36;87332;269;25235;-78
2023/12/23 09:58:03;;;;;;;9.20;5.20;;;;;;;3.03;100.00;97412.77;87455;269;22655;-76
2023/12/23 10:00:06;;;;;;;10.90;4.40;;;;;;;3.07;100.00;97411.55;87169;277;136151;-77
2023/12/23 10:02:14;;;;;;;8.00;5.30;;;;;;;3.04;100.00;97410.46;87630;271;22808;-76